Time;durP1;ratioP1;P1;durP2;ratioP2;P2;SDS_P1;SDS_P2;PMS_P1;PMS_P2;Temp;Humidity;BMP_temperature;BMP_pressure;BME280_temperature;BME280_humidity;BME280_pressure;Samples;Min_cycle;Max_cycle;Signal;HPM_P1;HPM_P2
2023/11/08 00:02:02;;;;;;;14.50;7.60;;;;;;;11.64;57.52;100553.15;106246;1257;67014;-57
2023/11/08 00:04:31;;;;;;;12.10;7.00;;;;;;;11.65;57.50;100552.33;106697;1250;64040;-55
2023/11/08 00:06:59;;;;;;;12.60;7.10;;;;;;;11.67;57.62;100550.90;106070;1250;63852;-57
2023/11/08 00:09:27;;;;;;;14.50;8.30;;;;;;;11.70;57.69;100551.58;106960;1256;60499;-56
2023/11/08 00:11:55;;;;;;;13.00;7.40;;;;;;;11.70;57.54;100545.59;105831;1250;60632;-57
2023/11/08 00:14:23;;;;;;;12.20;7.00;;;;;;;11.69;57.71;100547.58;106077;1253;67389;-57
2023/11/08 00:16:51;;;;;;;8.40;3.00;;;;;;;11.71;57.73;100547.80;106371;1254;61616;-56
2023/11/08 00:19:18;;;;;;;11.40;6.30;;;;;;;11.76;57.61;100542.65;105256;1253;64297;-56
2023/11/08 00:21:46;;;;;;;10.60;6.90;;;;;;;11.82;57.51;100531.48;105428;1254;61204;-56
2023/11/08 00:24:14;;;;;;;13.70;7.90;;;;;;;11.84;57.45;100524.98;105853;1253;60610;-56
2023/11/08 00:26:41;;;;;;;12.40;6.30;;;;;;;11.84;57.35;100519.48;105214;1251;65126;-53
2023/11/08 00:29:09;;;;;;;12.20;7.50;;;;;;;11.82;57.25;100521.98;105210;1253;61376;-57
2023/11/08 00:31:36;;;;;;;10.10;6.60;;;;;;;11.80;57.15;100521.98;105364;1250;62619;-55
2023/11/08 00:34:04;;;;;;;12.90;7.30;;;;;;;11.77;57.14;100522.70;105424;1250;60466;-57
2023/11/08 00:36:31;;;;;;;13.00;7.80;;;;;;;11.73;57.24;100525.20;105292;1252;60495;-57
2023/11/08 00:38:59;;;;;;;13.50;7.30;;;;;;;11.66;57.35;100514.80;106189;1253;63878;-56
2023/11/08 00:41:27;;;;;;;11.80;7.20;;;;;;;11.63;57.45;100505.20;105255;1258;60562;-56
2023/11/08 00:43:56;;;;;;;10.70;6.40;;;;;;;11.60;57.43;100502.01;106102;1257;63689;-55
2023/11/08 00:46:24;;;;;;;13.00;6.90;;;;;;;11.57;57.36;100500.16;105912;1255;60550;-57
2023/11/08 00:48:52;;;;;;;12.10;7.40;;;;;;;11.56;57.58;100499.17;105960;1253;60633;-58
2023/11/08 00:51:20;;;;;;;11.60;7.20;;;;;;;11.54;57.70;100496.68;105718;1253;64909;-57
2023/11/08 00:53:47;;;;;;;15.70;7.90;;;;;;;11.50;57.90;100498.19;106036;1256;60674;-55
2023/11/08 00:56:16;;;;;;;11.70;6.50;;;;;;;11.43;57.98;100496.33;105767;1257;63780;-59
2023/11/08 00:58:44;;;;;;;14.70;7.30;;;;;;;11.36;57.95;100494.78;105276;1259;60428;-57
2023/11/08 01:01:11;;;;;;;16.10;7.40;;;;;;;11.31;57.93;100483.45;105551;1254;60438;-56
2023/11/08 01:03:39;;;;;;;12.40;7.20;;;;;;;11.22;57.92;100480.30;105977;1253;63746;-57
2023/11/08 01:06:07;;;;;;;13.90;7.00;;;;;;;11.11;57.98;100476.79;105202;1253;61330;-57
2023/11/08 01:08:34;;;;;;;10.70;6.80;;;;;;;11.03;58.13;100476.95;106304;1253;64313;-58
2023/11/08 01:11:02;;;;;;;9.30;2.30;;;;;;;10.99;58.29;100473.06;105926;1253;60553;-57
2023/11/08 01:13:31;;;;;;;16.20;7.40;;;;;;;10.96;58.44;100468.52;105797;1251;60293;-57
2023/11/08 01:15:58;;;;;;;10.90;7.10;;;;;;;10.93;58.51;100465.61;105137;1253;64865;-57
2023/11/08 01:18:26;;;;;;;12.00;6.90;;;;;;;10.91;58.96;100464.85;106856;1256;61099;-56
2023/11/08 01:20:54;;;;;;;12.30;7.20;;;;;;;10.89;59.16;100465.55;106053;1253;63777;-55
2023/11/08 01:23:26;;;;;;;12.90;6.70;;;;;;;10.87;59.34;100464.68;106557;1253;60445;-57
2023/11/08 01:25:54;;;;;;;11.70;7.00;;;;;;;10.82;59.35;100465.75;106003;1250;60316;-58
2023/11/08 01:28:22;;;;;;;7.60;3.20;;;;;;;10.75;59.33;100463.85;106035;1256;65509;-58
2023/11/08 01:30:49;;;;;;;10.60;7.00;;;;;;;10.67;59.29;100464.55;105287;1253;60520;-56
2023/11/08 01:33:17;;;;;;;13.20;7.00;;;;;;;10.56;59.34;100463.61;105644;1253;63740;-57
2023/11/08 01:35:45;;;;;;;16.20;8.50;;;;;;;10.52;59.37;100464.14;105260;1254;60988;-60
2023/11/08 01:38:12;;;;;;;20.10;11.10;;;;;;;10.51;59.49;100466.65;105615;1253;60707;-57
2023/11/08 01:40:44;;;;;;;10.00;3.50;;;;;;;10.51;59.44;100455.77;107324;1251;64964;-56
2023/11/08 01:43:32;;;;;;;17.90;12.00;;;;;;;10.51;59.55;100454.04;105628;1253;61381;-56
2023/11/08 01:46:22;;;;;;;19.30;11.70;;;;;;;10.47;59.56;100450.81;105690;1256;63759;-57
2023/11/08 01:48:50;;;;;;;8.60;4.40;;;;;;;10.46;59.82;100454.30;105405;1256;60552;-60
2023/11/08 01:51:18;;;;;;;19.20;12.40;;;;;;;10.41;59.89;100455.81;106070;1257;59074;-57
2023/11/08 01:53:46;;;;;;;11.30;4.90;;;;;;;10.38;59.77;100456.59;105384;1253;63738;-56
2023/11/08 01:56:14;;;;;;;14.70;10.60;;;;;;;10.35;59.88;100455.98;105338;1259;61553;-58
2023/11/08 01:58:42;;;;;;;17.20;10.80;;;;;;;10.34;59.99;100450.27;105335;1256;63676;-56
2023/11/08 02:01:12;;;;;;;7.10;3.20;;;;;;;10.36;59.93;100450.60;107127;1251;60454;-58
2023/11/08 02:03:41;;;;;;;15.20;9.70;;;;;;;10.40;59.94;100451.86;105566;1256;60341;-58
2023/11/08 02:06:10;;;;;;;17.70;9.20;;;;;;;10.42;59.88;100455.42;106107;1253;65666;-59
2023/11/08 02:08:39;;;;;;;14.50;9.10;;;;;;;10.42;59.96;100457.89;105642;1256;60107;-58
2023/11/08 02:11:08;;;;;;;16.20;9.60;;;;;;;10.40;60.03;100448.73;105380;1254;63675;-57
2023/11/08 02:13:35;;;;;;;10.60;3.60;;;;;;;10.35;59.99;100436.99;106571;1253;60137;-58
2023/11/08 02:16:03;;;;;;;14.50;8.50;;;;;;;10.32;60.03;100428.35;106003;1251;60578;-57
2023/11/08 02:18:31;;;;;;;15.80;9.90;;;;;;;10.28;60.14;100426.84;106658;1256;65012;-57
2023/11/08 02:21:00;;;;;;;10.20;5.30;;;;;;;10.25;60.20;100427.93;105369;1257;60504;-57
2023/11/08 02:23:28;;;;;;;13.30;7.60;;;;;;;10.21;60.40;100425.46;106205;1254;63871;-57
2023/11/08 02:25:55;;;;;;;9.20;3.80;;;;;;;10.18;60.36;100428.50;107568;1253;60420;-57
2023/11/08 02:28:23;;;;;;;11.00;7.00;;;;;;;10.19;60.39;100431.55;105277;1252;60481;-57
2023/11/08 02:30:54;;;;;;;11.80;6.80;;;;;;;10.23;60.57;100434.92;107730;1257;64968;-57
2023/11/08 02:33:23;;;;;;;6.70;3.10;;;;;;;10.27;60.61;100433.73;106119;1250;61541;-57
2023/11/08 02:35:51;;;;;;;13.40;7.60;;;;;;;10.29;60.95;100429.72;106701;1253;63779;-57
2023/11/08 02:38:19;;;;;;;12.10;6.30;;;;;;;10.31;61.23;100427.33;105456;1254;60502;-57
2023/11/08 02:40:47;;;;;;;8.80;3.20;;;;;;;10.29;61.45;100425.86;106149;1258;60439;-57
2023/11/08 02:43:14;;;;;;;10.30;6.80;;;;;;;10.30;61.56;100431.77;105408;1256;64923;-57
2023/11/08 02:45:42;;;;;;;14.80;7.60;;;;;;;10.32;61.57;100421.83;106095;1256;61384;-57
2023/11/08 02:48:10;;;;;;;7.40;3.90;;;;;;;10.37;61.45;100420.59;105422;1254;63761;-58
2023/11/08 02:50:38;;;;;;;9.90;6.30;;;;;;;10.41;61.47;100418.82;105339;1257;60708;-58
2023/11/08 02:53:06;;;;;;;11.40;6.90;;;;;;;10.45;61.41;100417.12;105738;1253;60451;-57
2023/11/08 02:55:34;;;;;;;12.30;6.90;;;;;;;10.48;61.42;100423.54;106649;1252;63644;-54
2023/11/08 02:58:02;;;;;;;5.00;2.60;;;;;;;10.49;61.43;100425.03;106502;1256;61325;-55
2023/11/08 03:00:30;;;;;;;11.60;6.90;;;;;;;10.48;61.54;100420.40;105559;1257;64226;-57
2023/11/08 03:02:58;;;;;;;12.50;7.60;;;;;;;10.46;61.68;100415.61;105917;1258;60480;-55
2023/11/08 03:05:26;;;;;;;8.90;3.00;;;;;;;10.44;62.00;100412.84;105309;1259;59424;-57
2023/11/08 03:07:54;;;;;;;11.50;6.60;;;;;;;10.47;62.08;100411.49;106002;1251;64889;-55
2023/11/08 03:10:22;;;;;;;11.50;6.70;;;;;;;10.53;62.02;100409.82;105429;1253;60479;-55
2023/11/08 03:12:50;;;;;;;11.40;7.00;;;;;;;10.57;62.02;100405.65;105423;1253;62427;-56
2023/11/08 03:15:21;;;;;;;7.00;3.30;;;;;;;10.57;62.12;100404.41;105450;1256;60617;-57
2023/11/08 03:17:53;;;;;;;13.70;8.00;;;;;;;10.55;62.16;100406.52;105501;1253;60553;-54
2023/11/08 03:20:23;;;;;;;15.90;8.80;;;;;;;10.54;62.13;100406.61;105822;1256;64952;-56
2023/11/08 03:22:51;;;;;;;16.20;8.70;;;;;;;10.52;62.29;100398.00;106033;1259;62051;-55
2023/11/08 03:25:19;;;;;;;7.60;3.30;;;;;;;10.51;62.31;100396.31;106240;1253;63679;-59
2023/11/08 03:27:46;;;;;;;12.90;8.20;;;;;;;10.50;62.23;100393.95;103601;1253;3288210;-57
2023/11/08 03:41:59;;;;;;;14.10;8.90;;;;;;;10.70;62.35;100379.48;103082;1283;604204;-57
2023/11/08 03:44:27;;;;;;;15.80;10.50;;;;;;;11.21;61.00;100377.66;103093;1266;3282497;-56
2023/11/08 03:46:55;;;;;;;15.50;8.70;;;;;;;11.17;60.86;100379.01;104629;1267;59265;-50
2023/11/08 03:49:22;;;;;;;14.10;9.10;;;;;;;11.10;60.96;100373.83;104621;1267;63641;-55
2023/11/08 03:51:50;;;;;;;15.00;8.40;;;;;;;11.02;60.96;100378.66;105635;1257;61297;-56
2023/11/08 03:54:18;;;;;;;14.00;8.60;;;;;;;11.00;61.10;100379.62;105191;1260;62401;-57
2023/11/08 03:56:47;;;;;;;14.00;8.30;;;;;;;11.01;61.18;100386.04;105272;1256;59436;-57
2023/11/08 03:59:14;;;;;;;15.00;9.60;;;;;;;11.01;61.03;100387.75;105165;1262;59727;-57
2023/11/08 04:01:43;;;;;;;15.40;9.00;;;;;;;10.97;61.02;100384.89;105047;1257;63332;-56
2023/11/08 04:04:10;;;;;;;13.50;3.90;;;;;;;10.88;61.03;100380.13;105252;1263;61383;-59
2023/11/08 04:06:38;;;;;;;13.50;8.90;;;;;;;10.80;61.35;100381.34;106175;1261;63742;-56
2023/11/08 04:09:06;;;;;;;13.80;9.40;;;;;;;10.76;61.38;100377.50;105095;1258;59903;-57
2023/11/08 04:11:33;;;;;;;14.60;9.30;;;;;;;10.74;61.30;100373.22;105675;1257;59606;-56
2023/11/08 04:14:01;;;;;;;14.30;8.40;;;;;;;10.74;61.48;100373.94;105035;1258;64570;-57
2023/11/08 04:16:28;;;;;;;15.70;8.80;;;;;;;10.79;61.49;100365.30;105771;1262;61916;-57
2023/11/08 04:18:56;;;;;;;8.20;3.10;;;;;;;10.83;61.34;100356.41;105001;1261;62435;-57
2023/11/08 04:21:25;;;;;;;15.70;8.40;;;;;;;10.86;61.27;100357.55;105085;1259;60236;-58
2023/11/08 04:23:53;;;;;;;13.70;8.30;;;;;;;10.89;61.31;100349.55;105107;1263;59644;-54
2023/11/08 04:26:21;;;;;;;17.10;9.40;;;;;;;10.92;61.41;100340.73;105598;1262;64671;-56
2023/11/08 04:28:49;;;;;;;7.50;3.70;;;;;;;10.94;61.35;100352.11;105556;1257;60590;-58
2023/11/08 04:31:17;;;;;;;11.50;8.40;;;;;;;10.90;61.31;100368.27;105208;1262;63746;-56
2023/11/08 04:33:45;;;;;;;13.00;8.30;;;;;;;10.82;61.42;100366.33;105125;1261;59661;-57
2023/11/08 04:36:12;;;;;;;16.30;10.10;;;;;;;10.75;61.54;100353.48;105029;1259;59713;-56
2023/11/08 04:38:42;;;;;;;9.20;4.30;;;;;;;10.73;61.63;100343.11;105339;1259;62870;-56
2023/11/08 04:41:12;;;;;;;13.40;8.80;;;;;;;10.74;61.54;100347.64;105565;1261;61383;-56
2023/11/08 04:43:40;;;;;;;17.60;10.10;;;;;;;10.77;61.69;100348.65;106284;1263;62429;-57
2023/11/08 04:46:08;;;;;;;14.10;9.20;;;;;;;10.81;61.73;100348.30;105385;1261;59741;-56
2023/11/08 04:48:36;;;;;;;16.00;10.10;;;;;;;10.82;61.71;100349.42;106207;1260;59411;-56
2023/11/08 04:51:04;;;;;;;16.70;10.80;;;;;;;10.82;61.82;100355.05;105539;1261;64111;-59
2023/11/08 04:53:32;;;;;;;14.20;10.10;;;;;;;10.83;61.85;100355.14;105238;1260;61289;-57
2023/11/08 04:55:59;;;;;;;11.90;4.40;;;;;;;10.82;61.85;100341.05;106165;1261;62953;-59
2023/11/08 04:58:27;;;;;;;17.40;9.60;;;;;;;10.80;61.92;100338.52;105625;1262;60253;-57
2023/11/08 05:00:55;;;;;;;14.80;9.40;;;;;;;10.81;62.02;100337.25;105624;1262;59656;-56
2023/11/08 05:03:23;;;;;;;15.60;9.10;;;;;;;10.84;62.05;100332.44;105735;1260;64099;-55
2023/11/08 05:05:50;;;;;;;12.80;8.30;;;;;;;10.92;62.15;100334.80;105589;1260;61299;-55
2023/11/08 05:08:20;;;;;;;14.60;9.10;;;;;;;11.00;62.37;100346.42;105013;1258;63721;-57
2023/11/08 05:10:48;;;;;;;13.40;8.90;;;;;;;11.08;62.55;100361.04;105175;1258;59655;-56
2023/11/08 05:13:15;;;;;;;15.70;9.80;;;;;;;11.16;62.75;100360.90;105275;1256;59867;-58
2023/11/08 05:15:43;;;;;;;16.80;10.10;;;;;;;11.20;62.91;100358.43;105146;1261;64038;-53
2023/11/08 05:18:10;;;;;;;16.90;9.80;;;;;;;11.23;63.04;100351.18;105362;1258;61287;-53
2023/11/08 05:20:38;;;;;;;12.80;8.80;;;;;;;11.22;63.07;100340.73;105097;1261;63936;-53
2023/11/08 05:23:06;;;;;;;12.30;8.60;;;;;;;11.23;63.02;100342.07;105036;1262;59888;-52
2023/11/08 05:25:33;;;;;;;13.00;8.30;;;;;;;11.26;63.15;100340.19;107530;1256;59745;-53
2023/11/08 05:28:01;;;;;;;13.90;8.90;;;;;;;11.29;63.12;100334.31;106644;1257;64223;-52
2023/11/08 05:30:30;;;;;;;13.80;8.90;;;;;;;11.30;63.26;100326.14;105893;1257;60085;-51
2023/11/08 05:32:58;;;;;;;18.20;9.70;;;;;;;11.30;63.59;100313.67;106000;1257;63735;-51
2023/11/08 05:35:26;;;;;;;15.00;9.80;;;;;;;11.33;63.85;100311.15;106370;1257;59671;-52
2023/11/08 05:37:53;;;;;;;13.00;8.60;;;;;;;11.37;63.84;100308.73;106805;1257;59733;-52
2023/11/08 05:40:21;;;;;;;14.90;9.10;;;;;;;11.44;63.62;100313.59;106452;1257;64764;-53
2023/11/08 05:42:48;;;;;;;12.50;8.80;;;;;;;11.52;63.47;100320.23;105248;1257;60267;-53
2023/11/08 05:45:16;;;;;;;18.00;9.40;;;;;;;11.62;63.38;100321.39;105185;1257;63759;-51
2023/11/08 05:47:44;;;;;;;15.80;9.80;;;;;;;11.67;63.30;100325.00;105293;1254;59740;-53
2023/11/08 05:50:13;;;;;;;14.80;9.10;;;;;;;11.69;63.18;100328.17;105416;1256;59685;-50
2023/11/08 05:52:42;;;;;;;14.90;9.90;;;;;;;11.68;63.14;100334.01;105319;1258;64069;-49
2023/11/08 05:55:10;;;;;;;14.30;9.90;;;;;;;11.71;63.48;100331.50;105931;1260;61364;-49
2023/11/08 05:57:38;;;;;;;13.30;9.50;;;;;;;11.75;63.39;100331.04;109142;1254;63758;-52
2023/11/08 06:00:08;;;;;;;16.40;10.00;;;;;;;11.79;63.20;100338.90;109098;1254;57729;-51
2023/11/08 06:02:36;;;;;;;16.80;9.40;;;;;;;11.83;62.77;100340.60;109280;1254;57474;-52
2023/11/08 06:05:04;;;;;;;14.10;9.00;;;;;;;11.88;62.73;100335.83;109279;1254;64049;-56
2023/11/08 06:07:32;;;;;;;14.00;9.60;;;;;;;11.96;62.57;100332.05;109241;1255;60084;-53
2023/11/08 06:10:00;;;;;;;15.90;9.40;;;;;;;12.01;62.73;100321.23;109226;1254;64224;-53
2023/11/08 06:12:28;;;;;;;16.20;9.50;;;;;;;12.04;62.67;100313.77;109302;1254;57517;-53
2023/11/08 06:14:55;;;;;;;16.20;10.00;;;;;;;12.04;62.60;100315.81;109137;1259;57365;-52
2023/11/08 06:17:23;;;;;;;15.20;10.50;;;;;;;12.03;62.60;100318.18;106719;1253;72572;-52
2023/11/08 06:19:52;;;;;;;13.30;8.80;;;;;;;12.04;62.73;100315.33;106971;1254;61606;-51
2023/11/08 06:22:20;;;;;;;17.60;10.50;;;;;;;12.08;62.59;100316.89;106250;1255;62589;-52
2023/11/08 06:24:48;;;;;;;15.00;10.20;;;;;;;12.08;62.31;100311.11;105449;1257;59678;-53
2023/11/08 06:27:16;;;;;;;16.50;10.50;;;;;;;12.05;62.29;100310.17;105423;1257;59621;-51
2023/11/08 06:29:43;;;;;;;15.30;10.20;;;;;;;12.00;62.46;100306.85;106151;1258;66325;-52
2023/11/08 06:32:11;;;;;;;14.60;9.80;;;;;;;11.97;62.60;100303.27;105151;1254;61484;-51
2023/11/08 06:34:40;;;;;;;19.50;10.90;;;;;;;11.93;62.67;100299.21;105354;1258;62516;-53
2023/11/08 06:37:08;;;;;;;15.40;10.40;;;;;;;11.92;62.82;100291.80;108077;1254;60543;-53
2023/11/08 06:39:37;;;;;;;17.80;10.90;;;;;;;11.91;63.00;100290.27;106368;1254;59607;-55
2023/11/08 06:42:05;;;;;;;14.90;10.60;;;;;;;11.91;62.87;100290.41;105746;1257;62885;-54
2023/11/08 06:44:33;;;;;;;16.60;10.30;;;;;;;11.93;62.93;100288.67;105779;1257;60353;-54
2023/11/08 06:47:00;;;;;;;17.40;10.70;;;;;;;11.94;63.01;100289.48;105418;1255;64379;-53
2023/11/08 06:49:28;;;;;;;13.70;10.00;;;;;;;11.93;63.17;100277.07;105796;1255;59741;-53
2023/11/08 06:51:57;;;;;;;17.00;10.50;;;;;;;11.92;63.40;100275.77;106028;1259;59619;-53
2023/11/08 06:54:25;;;;;;;16.10;10.40;;;;;;;11.91;63.46;100279.02;106127;1254;64102;-52
2023/11/08 06:56:52;;;;;;;15.20;9.00;;;;;;;11.87;63.58;100278.63;105750;1253;61472;-52
2023/11/08 06:59:20;;;;;;;17.10;9.90;;;;;;;11.86;63.63;100265.33;105850;1254;62476;-52
2023/11/08 07:01:47;;;;;;;15.40;9.40;;;;;;;11.90;63.92;100258.64;105362;1257;59612;-52
2023/11/08 07:04:15;;;;;;;18.90;9.70;;;;;;;11.96;63.95;100260.81;105498;1252;59660;-53
2023/11/08 07:06:43;;;;;;;15.70;10.10;;;;;;;12.00;64.03;100257.44;106827;1257;75645;-52
2023/11/08 07:09:14;;;;;;;16.80;10.30;;;;;;;12.05;64.22;100251.55;105261;1255;62264;-53
2023/11/08 07:11:41;;;;;;;15.20;10.20;;;;;;;12.07;64.12;100249.06;109044;1254;66316;-53
2023/11/08 07:14:09;;;;;;;19.10;12.20;;;;;;;12.06;64.13;100248.71;109230;1254;57832;-56
2023/11/08 07:16:36;;;;;;;18.10;11.40;;;;;;;12.11;64.14;100247.38;109200;1253;57629;-53
2023/11/08 07:19:06;;;;;;;20.10;11.70;;;;;;;12.19;63.98;100247.34;109270;1254;63244;-52
2023/11/08 07:21:34;;;;;;;17.00;10.30;;;;;;;12.27;64.00;100250.38;109328;1254;62021;-51
2023/11/08 07:24:02;;;;;;;18.90;11.50;;;;;;;12.31;63.93;100245.25;107561;1257;64101;-52
2023/11/08 07:26:29;;;;;;;14.60;9.80;;;;;;;12.32;63.91;100249.88;105874;1254;61444;-51
2023/11/08 07:28:58;;;;;;;17.00;10.50;;;;;;;12.35;63.97;100247.02;105530;1254;59912;-48
2023/11/08 07:31:26;;;;;;;14.70;10.00;;;;;;;12.37;64.09;100244.00;106696;1253;64603;-55
2023/11/08 07:33:53;;;;;;;21.00;11.20;;;;;;;12.42;63.96;100240.16;106270;1257;60775;-59
2023/11/08 07:36:23;;;;;;;15.00;9.10;;;;;;;12.49;63.77;100236.92;106162;1254;62540;-68
2023/11/08 07:38:51;;;;;;;14.00;9.30;;;;;;;12.55;63.74;100226.95;106061;1255;59624;-69
2023/11/08 07:41:19;;;;;;;15.10;10.10;;;;;;;12.57;63.61;100219.89;105748;1253;61241;-68
2023/11/08 07:43:47;;;;;;;16.50;9.80;;;;;;;12.54;63.50;100217.65;105724;1252;62805;-69
2023/11/08 07:46:14;;;;;;;14.30;9.30;;;;;;;12.51;63.33;100210.05;106078;1254;62297;-70
2023/11/08 07:48:42;;;;;;;16.10;9.90;;;;;;;12.44;63.24;100197.99;106108;1254;62886;-68
2023/11/08 07:51:10;;;;;;;16.50;9.00;;;;;;;12.35;63.41;100190.17;105267;1254;62824;-69
2023/11/08 07:53:38;;;;;;;11.70;8.50;;;;;;;12.33;63.60;100182.11;105731;1257;60360;-67
2023/11/08 07:56:07;;;;;;;13.40;8.50;;;;;;;12.34;63.74;100173.73;106911;1254;66931;-66
2023/11/08 07:58:35;;;;;;;15.50;9.30;;;;;;;12.37;63.85;100160.09;105984;1258;72661;-67
2023/11/08 08:01:03;;;;;;;16.80;9.00;;;;;;;12.41;63.85;100159.01;105852;1254;73518;-64
2023/11/08 08:03:31;;;;;;;15.10;9.70;;;;;;;12.42;63.91;100156.67;106030;1257;60549;-62
2023/11/08 08:05:59;;;;;;;13.50;9.70;;;;;;;12.41;63.93;100152.89;105955;1254;60588;-63
2023/11/08 08:08:26;;;;;;;15.00;10.10;;;;;;;12.40;64.03;100151.34;107544;1254;63756;-62
2023/11/08 08:10:54;;;;;;;14.00;10.00;;;;;;;12.39;63.98;100147.98;106815;1256;73024;-62
2023/11/08 08:13:22;;;;;;;15.90;9.10;;;;;;;12.39;64.08;100140.42;105281;1258;74769;-61
2023/11/08 08:15:59;;;;;;;15.10;8.80;;;;;;;12.40;64.08;100143.42;105277;1254;60480;-61
2023/11/08 08:18:27;;;;;;;14.20;8.30;;;;;;;12.42;64.08;100154.70;105785;1255;60474;-62
2023/11/08 08:20:55;;;;;;;13.70;8.60;;;;;;;12.42;64.24;100161.92;106761;1253;65753;-63
2023/11/08 08:23:23;;;;;;;17.00;9.10;;;;;;;12.40;64.41;100160.30;105831;1254;60645;-62
2023/11/08 08:25:51;;;;;;;14.80;9.50;;;;;;;12.39;64.54;100154.45;107289;1255;62824;-63
2023/11/08 08:28:19;;;;;;;14.50;8.30;;;;;;;12.38;64.46;100147.71;105337;1254;60473;-61
2023/11/08 08:30:46;;;;;;;13.80;8.30;;;;;;;12.38;64.41;100144.93;106105;1254;60861;-62
2023/11/08 08:33:15;;;;;;;13.20;7.60;;;;;;;12.40;64.23;100136.78;105283;1257;75024;-61
2023/11/08 08:35:45;;;;;;;12.70;8.10;;;;;;;12.42;64.27;100136.98;105671;1252;72576;-62
2023/11/08 08:38:12;;;;;;;11.20;8.20;;;;;;;12.40;64.24;100133.98;106278;1257;65820;-60
2023/11/08 08:40:40;;;;;;;14.70;8.10;;;;;;;12.37;64.25;100128.10;106032;1255;60450;-62
2023/11/08 08:43:07;;;;;;;17.60;8.60;;;;;;;12.33;64.40;100125.96;105825;1252;59079;-63
2023/11/08 08:45:35;;;;;;;10.90;7.50;;;;;;;12.33;64.63;100124.43;105134;1254;65143;-62
2023/11/08 08:48:04;;;;;;;14.20;7.80;;;;;;;12.35;64.54;100123.52;105437;1254;62585;-63
2023/11/08 08:50:36;;;;;;;12.10;7.90;;;;;;;12.38;64.28;100117.10;106202;1255;74886;-63
2023/11/08 08:53:04;;;;;;;13.30;8.90;;;;;;;12.39;64.30;100111.68;105406;1257;60482;-63
2023/11/08 08:55:35;;;;;;;14.30;7.70;;;;;;;12.39;64.36;100103.85;105161;1257;60853;-63
2023/11/08 08:58:06;;;;;;;13.50;8.20;;;;;;;12.35;64.50;100097.52;105220;1255;65494;-63
2023/11/08 09:00:35;;;;;;;13.10;8.70;;;;;;;12.32;64.54;100095.64;105445;1254;63919;-60
2023/11/08 09:03:03;;;;;;;15.00;8.60;;;;;;;12.30;64.69;100089.54;105928;1252;73069;-61
2023/11/08 09:05:31;;;;;;;16.50;8.00;;;;;;;12.31;64.67;100077.84;105766;1257;61700;-60
2023/11/08 09:08:00;;;;;;;14.90;7.80;;;;;;;12.32;64.56;100055.02;105743;1254;60536;-64
2023/11/08 09:10:28;;;;;;;13.10;7.30;;;;;;;12.36;64.57;100040.61;106159;1254;75070;-65
2023/11/08 09:12:56;;;;;;;11.20;7.40;;;;;;;12.38;64.57;100032.27;105960;1257;63771;-61
2023/11/08 09:15:24;;;;;;;13.80;7.20;;;;;;;12.39;64.52;100023.58;105110;1260;72575;-60
2023/11/08 09:17:52;;;;;;;12.70;7.70;;;;;;;12.39;64.45;100013.60;106010;1254;61081;-64
2023/11/08 09:20:20;;;;;;;10.80;7.10;;;;;;;12.39;64.52;100014.41;106094;1254;60650;-59
2023/11/08 09:22:48;;;;;;;10.60;7.00;;;;;;;12.41;64.54;100018.09;107523;1254;76066;-62
2023/11/08 09:25:16;;;;;;;11.20;6.80;;;;;;;12.43;64.53;100017.02;105281;1255;60749;-61
2023/11/08 09:27:44;;;;;;;11.20;7.40;;;;;;;12.47;64.60;100014.25;105295;1254;62892;-63
2023/11/08 09:30:12;;;;;;;11.20;7.40;;;;;;;12.47;64.67;100018.30;105834;1256;60607;-63
2023/11/08 09:32:39;;;;;;;12.80;7.40;;;;;;;12.43;64.73;100018.33;106541;1254;62203;-63
2023/11/08 09:35:08;;;;;;;13.40;7.70;;;;;;;12.40;64.67;100015.25;105560;1257;65757;-62
2023/11/08 09:37:36;;;;;;;11.80;7.10;;;;;;;12.38;64.83;100012.45;105997;1254;60502;-63
2023/11/08 09:40:09;;;;;;;10.90;6.70;;;;;;;12.39;64.77;100001.29;105524;1254;64795;-61
2023/11/08 09:42:37;;;;;;;10.70;6.90;;;;;;;12.44;64.70;99987.80;105973;1254;60556;-62
2023/11/08 09:45:11;;;;;;;10.40;6.90;;;;;;;12.50;64.77;99985.63;106102;1254;59501;-61
2023/11/08 09:47:39;;;;;;;13.40;8.40;;;;;;;12.54;64.89;99990.01;105373;1257;76106;-61
2023/11/08 09:50:08;;;;;;;12.60;8.50;;;;;;;12.51;65.00;99986.56;105305;1260;72993;-58
2023/11/08 09:52:39;;;;;;;12.90;8.50;;;;;;;12.48;64.78;99973.49;105608;1254;64123;-61
2023/11/08 09:55:10;;;;;;;15.40;9.10;;;;;;;12.44;64.72;99960.79;107169;1253;63747;-60
2023/11/08 09:57:41;;;;;;;13.90;8.20;;;;;;;12.45;64.57;99951.78;106521;1254;60447;-61
2023/11/08 10:00:10;;;;;;;14.80;8.90;;;;;;;12.41;64.39;99950.20;105570;1254;63823;-61
2023/11/08 10:02:42;;;;;;;14.70;9.00;;;;;;;12.35;64.59;99950.21;105544;1254;62058;-60
2023/11/08 10:05:11;;;;;;;13.20;8.30;;;;;;;12.29;64.70;99953.29;107042;1254;66761;-60
2023/11/08 10:07:41;;;;;;;15.40;8.00;;;;;;;12.17;64.88;99959.33;105228;1254;60686;-60
2023/11/08 10:10:09;;;;;;;23.10;10.50;;;;;;;12.04;65.24;99967.35;106151;1254;60533;-60
2023/11/08 10:12:38;;;;;;;12.90;8.10;;;;;;;12.00;65.42;99959.16;107665;1253;65054;-61
2023/11/08 10:15:06;;;;;;;12.90;8.20;;;;;;;11.98;65.59;99953.85;105764;1253;71729;-62
2023/11/08 10:17:36;;;;;;;12.20;9.00;;;;;;;11.97;65.76;99950.14;106009;1254;62975;-62
2023/11/08 10:20:27;;;;;;;14.20;9.10;;;;;;;11.92;66.23;99953.41;105168;1254;60626;-62
2023/11/08 10:22:57;;;;;;;17.70;10.70;;;;;;;11.88;66.37;99955.85;105772;1253;60555;-60
2023/11/08 10:25:27;;;;;;;15.40;10.00;;;;;;;11.83;66.52;99955.92;106508;1252;76359;-63
2023/11/08 10:28:05;;;;;;;15.30;11.00;;;;;;;11.83;66.50;99955.41;106439;1254;61812;-61
2023/11/08 10:30:38;;;;;;;18.40;10.00;;;;;;;11.82;66.71;99953.10;105786;1254;73617;-61
2023/11/08 10:33:10;;;;;;;20.40;12.30;;;;;;;11.81;66.82;99947.38;106631;1254;60469;-61
2023/11/08 10:35:39;;;;;;;17.10;11.90;;;;;;;11.75;66.98;99938.81;105796;1253;60537;-60
2023/11/08 10:38:09;;;;;;;18.80;12.30;;;;;;;11.67;67.17;99934.20;106330;1253;63765;-61
2023/11/08 10:40:38;;;;;;;22.60;13.80;;;;;;;11.63;67.24;99928.79;105544;1257;60652;-61
2023/11/08 10:43:06;;;;;;;12.50;6.30;;;;;;;11.62;67.32;99928.20;106163;1254;74761;-61
2023/11/08 10:45:34;;;;;;;18.10;14.20;;;;;;;11.60;67.45;99929.06;106144;1257;62640;-61
2023/11/08 10:48:03;;;;;;;19.80;14.20;;;;;;;11.58;67.60;99926.98;105481;1254;60537;-62
2023/11/08 10:50:32;;;;;;;22.60;14.70;;;;;;;11.53;67.79;99922.89;106654;1253;64366;-61
2023/11/08 10:52:59;;;;;;;22.60;14.10;;;;;;;11.47;68.01;99925.20;105832;1260;60440;-62
2023/11/08 10:55:27;;;;;;;21.30;12.90;;;;;;;11.46;68.21;99921.22;108357;1254;62559;-62
2023/11/08 10:57:58;;;;;;;20.00;13.40;;;;;;;11.51;68.04;99912.31;109232;1254;58433;-60
2023/11/08 11:00:26;;;;;;;20.00;14.70;;;;;;;11.53;67.94;99895.08;109247;1253;58440;-60
2023/11/08 11:02:55;;;;;;;21.60;14.10;;;;;;;11.52;67.80;99887.58;109277;1254;67085;-61
2023/11/08 11:05:23;;;;;;;18.90;14.40;;;;;;;11.50;68.08;99878.65;109270;1253;60263;-59
2023/11/08 11:07:53;;;;;;;17.80;13.70;;;;;;;11.47;67.99;99877.39;109137;1253;62847;-60
2023/11/08 11:10:20;;;;;;;19.20;13.40;;;;;;;11.45;68.06;99871.42;109261;1253;58241;-59
2023/11/08 11:13:11;;;;;;;18.50;12.10;;;;;;;11.48;68.13;99871.29;109212;1255;61127;-60
2023/11/08 11:15:42;;;;;;;18.30;13.10;;;;;;;11.51;67.98;99860.96;109023;1253;76116;-59
2023/11/08 11:18:15;;;;;;;16.10;12.30;;;;;;;11.55;67.90;99853.32;109295;1253;60666;-60
2023/11/08 11:20:47;;;;;;;18.90;12.70;;;;;;;11.55;67.97;99850.52;109245;1254;73268;-60
2023/11/08 11:23:41;;;;;;;16.20;12.60;;;;;;;11.52;68.10;99856.51;109097;1254;58630;-60
2023/11/08 11:26:12;;;;;;;15.90;11.70;;;;;;;11.50;68.22;99859.75;109272;1252;58537;-60
2023/11/08 11:28:59;;;;;;;16.20;11.40;;;;;;;11.53;68.20;99865.77;106583;1253;65760;-60